Time;durP1;ratioP1;P1;durP2;ratioP2;P2;SDS_P1;SDS_P2;PMS_P1;PMS_P2;Temp;Humidity;BMP_temperature;BMP_pressure;BME280_temperature;BME280_humidity;BME280_pressure;Samples;Min_cycle;Max_cycle;Signal;HPM_P1;HPM_P2
2022/02/11 00:01:50;;;;;;;5.38;4.88;;;6.30;96.70;;;;;;5104523;28;20190;-87
2022/02/11 00:04:45;;;;;;;6.25;5.65;;;6.30;97.10;;;;;;5104839;28;20271;-87
2022/02/11 00:07:11;;;;;;;5.55;4.93;;;6.30;97.00;;;;;;5107977;28;20214;-86
2022/02/11 00:09:40;;;;;;;7.78;4.85;;;6.40;99.90;;;;;;5101995;28;20206;-87
2022/02/11 00:12:08;;;;;;;6.47;5.13;;;6.30;97.50;;;;;;5110272;28;20731;-87
2022/02/11 00:14:43;;;;;;;7.65;5.22;;;6.40;99.90;;;;;;5092994;28;20235;-87
2022/02/11 00:17:12;;;;;;;5.05;4.43;;;6.30;97.50;;;;;;5098945;28;20228;-87
2022/02/11 00:19:40;;;;;;;5.63;5.03;;;;;;;;;;5109172;28;20194;-86
2022/02/11 00:22:07;;;;;;;5.72;4.82;;;;;;;;;;5082775;28;20242;-87
2022/02/11 00:24:34;;;;;;;9.30;4.65;;;6.20;96.90;;;;;;5101499;28;20381;-87
2022/02/11 00:27:28;;;;;;;5.60;5.10;;;6.20;97.40;;;;;;5109924;28;20259;-87
2022/02/11 00:32:44;;;;;;;8.02;5.75;;;6.20;97.20;;;;;;5103956;28;20724;-86
2022/02/11 00:35:22;;;;;;;7.90;5.20;;;3.80;98.70;;;;;;5105737;28;20289;-87
2022/02/11 00:37:49;;;;;;;5.88;4.70;;;6.20;97.30;;;;;;5108830;28;20220;-87
2022/02/11 00:40:27;;;;;;;8.13;5.88;;;6.20;97.30;;;;;;5097305;28;20197;-87
2022/02/11 00:45:50;;;;;;;4.80;4.30;;;6.10;97.40;;;;;;5103068;28;20210;-87
2022/02/11 01:02:20;;;;;;;5.25;4.20;;;6.00;97.00;;;;;;5101372;28;20339;-87
2022/02/11 01:04:47;;;;;;;5.97;5.28;;;6.00;96.80;;;;;;5105909;28;20209;-87
2022/02/11 01:07:15;;;;;;;7.68;4.90;;;5.90;97.00;;;;;;5107241;28;20291;-87
2022/02/11 01:09:43;;;;;;;6.75;5.63;;;5.90;97.20;;;;;;5093482;28;20202;-86
2022/02/11 01:12:13;;;;;;;6.07;4.70;;;5.90;97.30;;;;;;5109294;28;20552;-86
2022/02/11 01:14:49;;;;;;;7.95;5.85;;;5.90;99.90;;;;;;5093217;28;20214;-87
2022/02/11 01:17:23;;;;;;;5.95;5.35;;;5.90;97.10;;;;;;5102158;28;20232;-87
2022/02/11 01:19:58;;;;;;;6.82;5.95;;;5.80;97.50;;;;;;5101939;28;20202;-87
2022/02/11 01:23:02;;;;;;;7.57;5.10;;;5.90;97.00;;;;;;5089083;28;20679;-86
2022/02/11 01:25:57;;;;;;;10.68;6.18;;;5.80;97.10;;;;;;5070600;28;20203;-87
2022/02/11 01:28:38;;;;;;;6.35;4.78;;;5.60;99.90;;;;;;5077080;28;20202;-86
2022/02/11 01:31:19;;;;;;;7.63;5.63;;;5.70;97.20;;;;;;5088687;28;20194;-87
2022/02/11 01:36:48;;;;;;;8.65;5.03;;;5.70;97.20;;;;;;5057529;28;20606;-87
2022/02/11 01:50:42;;;;;;;6.50;5.90;;;5.60;97.20;;;;;;5090049;28;20212;-86
2022/02/11 01:53:19;;;;;;;7.32;5.82;;;5.60;97.00;;;;;;5103851;28;20759;-87
2022/02/11 02:01:47;;;;;;;13.07;6.55;;;;;;;;;;5068094;28;20231;-87
2022/02/11 02:05:10;;;;;;;6.38;5.57;;;5.60;96.70;;;;;;5094697;28;20205;-87
2022/02/11 02:13:40;;;;;;;8.73;5.20;;;5.60;97.00;;;;;;5071993;28;20211;-86
2022/02/11 02:19:54;;;;;;;8.20;5.97;;;5.60;96.50;;;;;;5044712;28;20196;-86
2022/02/11 02:25:05;;;;;;;6.40;4.00;;;5.50;99.90;;;;;;5091536;28;20220;-87
2022/02/11 02:27:47;;;;;;;5.38;4.43;;;5.40;96.40;;;;;;5089550;28;20669;-87
2022/02/11 02:33:38;;;;;;;4.25;3.50;;;5.30;99.90;;;;;;5097823;28;20222;-87
2022/02/11 02:50:25;;;;;;;4.65;3.63;;;5.40;97.00;;;;;;5111538;28;20228;-87
2022/02/11 02:58:28;;;;;;;4.55;2.88;;;5.20;97.90;;;;;;5094152;28;20661;-87
2022/02/11 03:01:15;;;;;;;2.63;2.25;;;5.20;98.00;;;;;;5091581;28;20583;-87
2022/02/11 03:17:55;;;;;;;5.22;3.15;;;4.80;99.90;;;;;;5088959;28;20700;-87
2022/02/11 03:51:33;;;;;;;2.13;1.92;;;3.90;99.90;;;;;;5108502;28;20205;-89
2022/02/11 04:55:07;;;;;;;2.95;2.75;;;2.00;99.90;;;;;;5089319;28;20210;-88
2022/02/11 05:00:20;;;;;;;2.35;2.15;;;2.60;99.90;;;;;;5095841;28;20202;-89
2022/02/11 05:02:48;;;;;;;3.30;3.00;;;2.20;99.90;;;;;;5098956;28;20665;-88
2022/02/11 05:05:15;;;;;;;3.20;2.95;;;2.10;99.90;;;;;;5089066;28;20190;-87
2022/02/11 05:07:42;;;;;;;3.22;2.92;;;2.00;99.90;;;;;;5104451;28;20186;-88
2022/02/11 05:10:13;;;;;;;3.50;3.13;;;1.60;99.90;;;;;;5089799;28;20195;-88
2022/02/11 05:12:41;;;;;;;3.15;2.95;;;2.30;99.90;;;;;;5104884;28;20493;-88
2022/02/11 05:15:09;;;;;;;3.55;3.25;;;2.80;99.90;;;;;;5099905;28;20560;-88
2022/02/11 05:17:37;;;;;;;3.20;2.90;;;2.10;99.90;;;;;;5104432;28;20222;-88
2022/02/11 05:20:05;;;;;;;3.95;2.92;;;2.30;99.90;;;;;;5089772;28;20199;-88
2022/02/11 05:22:32;;;;;;;3.30;3.00;;;2.10;99.90;;;;;;5088235;28;20210;-89
2022/02/11 05:25:00;;;;;;;3.88;3.42;;;;;;;;;;5082110;28;20286;-88
2022/02/11 05:27:28;;;;;;;2.83;2.58;;;2.90;99.90;;;;;;5081793;28;20191;-88
2022/02/11 05:29:55;;;;;;;2.90;2.70;;;;;;;;;;5082951;28;20190;-88
2022/02/11 05:32:22;;;;;;;3.03;2.83;;;2.00;99.90;;;;;;5088292;28;20453;-88
2022/02/11 05:34:49;;;;;;;2.85;2.65;;;2.80;99.90;;;;;;5093307;28;20190;-88
2022/02/11 05:37:17;;;;;;;4.25;3.30;;;2.20;99.90;;;;;;5108102;28;20232;-88
2022/02/11 05:39:44;;;;;;;3.50;3.13;;;1.90;99.90;;;;;;5098668;28;20220;-88
2022/02/11 05:42:11;;;;;;;4.50;3.22;;;2.00;99.90;;;;;;5108160;28;20201;-85
2022/02/11 05:44:39;;;;;;;3.17;2.88;;;2.10;99.90;;;;;;5097364;28;20258;-85
2022/02/11 05:47:06;;;;;;;4.07;2.60;;;2.00;99.90;;;;;;5108476;28;20728;-86
2022/02/11 05:49:33;;;;;;;3.75;3.10;;;2.10;99.90;;;;;;5094771;28;20210;-86
2022/02/11 05:52:01;;;;;;;3.47;2.97;;;2.10;99.90;;;;;;5088474;28;20311;-85
2022/02/11 05:54:28;;;;;;;3.70;3.25;;;2.00;99.90;;;;;;5097675;28;20207;-86
2022/02/11 05:56:57;;;;;;;4.57;3.58;;;2.00;99.90;;;;;;5088358;28;20218;-85
2022/02/11 05:59:24;;;;;;;5.35;4.35;;;2.00;99.90;;;;;;5088541;28;20599;-86
2022/02/11 06:01:52;;;;;;;5.47;3.70;;;2.30;99.90;;;;;;5095812;28;20251;-85
2022/02/11 06:04:20;;;;;;;5.40;3.65;;;2.10;99.90;;;;;;5092093;28;20233;-85
2022/02/11 06:06:48;;;;;;;4.03;3.45;;;2.10;99.90;;;;;;5093678;28;20549;-85
2022/02/11 06:09:15;;;;;;;4.90;4.35;;;2.20;99.90;;;;;;5101555;28;20649;-85
2022/02/11 06:11:42;;;;;;;6.47;4.75;;;2.20;99.90;;;;;;5096566;28;20210;-86
2022/02/11 06:14:09;;;;;;;4.60;4.10;;;2.50;99.90;;;;;;5088204;28;20222;-86
2022/02/11 06:16:36;;;;;;;4.03;3.30;;;2.20;99.90;;;;;;5091176;28;20218;-85
2022/02/11 06:19:04;;;;;;;5.75;4.22;;;2.50;99.90;;;;;;5089804;28;20215;-85
2022/02/11 06:21:31;;;;;;;4.28;3.88;;;2.40;99.90;;;;;;5097211;28;20202;-85
2022/02/11 06:23:58;;;;;;;4.72;4.22;;;2.70;99.90;;;;;;5104559;28;20840;-85
2022/02/11 06:26:25;;;;;;;5.72;4.38;;;2.40;99.90;;;;;;5082077;28;20190;-85
2022/02/11 06:28:52;;;;;;;4.68;4.05;;;2.30;99.90;;;;;;5103841;28;20197;-85
2022/02/11 06:31:20;;;;;;;4.85;3.58;;;2.30;99.90;;;;;;5091628;28;20208;-86
2022/02/11 06:33:47;;;;;;;7.13;4.50;;;2.70;99.90;;;;;;5092427;28;20207;-85
2022/02/11 06:36:15;;;;;;;8.50;3.85;;;2.20;99.90;;;;;;5110203;28;20206;-85
2022/02/11 06:38:42;;;;;;;5.95;3.40;;;1.90;99.90;;;;;;5110789;28;20202;-85
2022/02/11 06:41:09;;;;;;;3.35;3.05;;;1.90;99.90;;;;;;5098481;27;20570;-84
2022/02/11 06:43:36;;;;;;;4.68;2.97;;;1.90;99.90;;;;;;5097629;28;20381;-85
2022/02/11 06:46:04;;;;;;;5.10;3.95;;;1.80;99.90;;;;;;5092827;28;20241;-85
2022/02/11 06:48:31;;;;;;;11.30;3.80;;;1.80;99.90;;;;;;5104747;28;20262;-85
2022/02/11 06:50:59;;;;;;;5.90;4.45;;;1.80;99.90;;;;;;5112040;28;20198;-85
2022/02/11 06:53:28;;;;;;;5.35;4.28;;;2.30;99.90;;;;;;5100961;28;20194;-85
2022/02/11 06:55:55;;;;;;;5.15;3.58;;;2.10;99.90;;;;;;5097754;28;20666;-84
2022/02/11 06:58:22;;;;;;;3.65;3.35;;;1.70;99.90;;;;;;5093693;28;20218;-84
2022/02/11 07:00:51;;;;;;;5.38;4.13;;;1.70;99.90;;;;;;5104179;28;20605;-85
2022/02/11 07:03:19;;;;;;;4.72;4.28;;;1.70;99.90;;;;;;5097861;28;20282;-84
2022/02/11 07:05:46;;;;;;;5.22;3.67;;;1.70;99.90;;;;;;5090849;28;20302;-85
2022/02/11 07:08:13;;;;;;;7.78;4.60;;;1.60;99.90;;;;;;5094079;28;20609;-85
2022/02/11 07:10:41;;;;;;;5.43;4.25;;;1.70;99.90;;;;;;5091266;28;20251;-85
2022/02/11 07:13:13;;;;;;;5.82;4.55;;;1.60;99.90;;;;;;5106165;28;20255;-84
2022/02/11 07:15:41;;;;;;;11.13;6.70;;;1.60;99.90;;;;;;5110574;27;20198;-84
2022/02/11 07:18:08;;;;;;;6.95;5.10;;;1.60;99.90;;;;;;5093732;28;20613;-84
2022/02/11 07:20:35;;;;;;;5.30;3.75;;;;;;;;;;5088640;28;20194;-84
2022/02/11 07:23:02;;;;;;;5.53;5.00;;;1.50;99.90;;;;;;5100776;28;20190;-84
2022/02/11 07:25:29;;;;;;;5.82;5.22;;;1.60;99.90;;;;;;5105143;28;20199;-84
2022/02/11 07:27:58;;;;;;;5.43;4.57;;;1.60;99.90;;;;;;5105894;28;20202;-84
2022/02/11 07:30:25;;;;;;;4.40;4.00;;;1.60;99.90;;;;;;5094845;28;20718;-84
2022/02/11 07:32:52;;;;;;;4.45;4.05;;;1.70;99.90;;;;;;5089856;28;20268;-84
2022/02/11 07:35:20;;;;;;;6.30;4.78;;;1.60;99.90;;;;;;5089944;28;20227;-85
2022/02/11 07:37:47;;;;;;;4.28;3.80;;;1.70;99.90;;;;;;5088832;28;20226;-85
2022/02/11 07:40:14;;;;;;;7.05;4.88;;;1.70;99.90;;;;;;5100092;28;20183;-84
2022/02/11 07:42:52;;;;;;;7.80;4.65;;;1.50;99.90;;;;;;5101189;28;20590;-84
2022/02/11 07:45:22;;;;;;;6.57;5.55;;;1.70;99.90;;;;;;5111374;28;21338;-84
2022/02/11 07:47:49;;;;;;;7.43;5.50;;;1.80;99.90;;;;;;5108940;28;20627;-84
2022/02/11 07:50:16;;;;;;;5.40;4.70;;;1.60;99.90;;;;;;5107734;28;20190;-84
2022/02/11 07:52:43;;;;;;;5.10;4.57;;;1.70;99.90;;;;;;5090124;28;20199;-84
2022/02/11 07:55:10;;;;;;;4.00;3.60;;;1.90;99.90;;;;;;5092305;28;20578;-84
2022/02/11 07:57:37;;;;;;;8.95;5.03;;;1.90;99.90;;;;;;5103932;28;20221;-84
2022/02/11 08:00:05;;;;;;;5.35;3.67;;;1.90;99.90;;;;;;5098063;28;20419;-84
2022/02/11 08:02:34;;;;;;;5.20;4.70;;;1.90;99.90;;;;;;5090249;28;20190;-84
2022/02/11 08:05:02;;;;;;;6.97;4.35;;;2.10;99.90;;;;;;5094116;28;20536;-84
2022/02/11 08:07:29;;;;;;;4.82;4.35;;;2.00;99.90;;;;;;5097630;27;20198;-84
2022/02/11 08:09:55;;;;;;;5.88;4.95;;;2.40;99.90;;;;;;5092730;28;20255;-84
2022/02/11 08:12:22;;;;;;;10.52;5.18;;;2.20;99.90;;;;;;5094998;28;20252;-84
2022/02/11 08:14:50;;;;;;;6.20;3.75;;;2.10;99.90;;;;;;5090835;28;20198;-84
2022/02/11 08:17:17;;;;;;;3.85;3.50;;;1.40;99.90;;;;;;5095351;28;20218;-84
2022/02/11 08:19:45;;;;;;;6.93;3.58;;;2.10;99.90;;;;;;5109446;28;20198;-84
2022/02/11 08:22:12;;;;;;;4.25;3.85;;;2.10;99.90;;;;;;5102199;28;20205;-84
2022/02/11 08:24:39;;;;;;;4.85;4.03;;;2.10;99.90;;;;;;5101337;27;20205;-84
2022/02/11 08:27:05;;;;;;;7.05;3.83;;;2.20;99.90;;;;;;5089947;28;20210;-84
2022/02/11 08:29:35;;;;;;;6.25;3.25;;;2.00;99.90;;;;;;5100196;28;20281;-84
2022/02/11 08:32:02;;;;;;;4.53;3.35;;;2.20;99.90;;;;;;5096960;28;20226;-84
2022/02/11 08:34:29;;;;;;;4.45;4.05;;;2.30;99.90;;;;;;5089970;28;20309;-85
2022/02/11 08:36:57;;;;;;;4.88;3.80;;;2.40;99.90;;;;;;5106509;28;20205;-85
2022/02/11 08:39:24;;;;;;;4.53;3.90;;;2.40;99.90;;;;;;5100787;28;21109;-85
2022/02/11 08:41:51;;;;;;;3.75;3.42;;;2.20;99.90;;;;;;5089049;28;20526;-85
2022/02/11 08:44:18;;;;;;;5.47;4.50;;;2.40;99.90;;;;;;5096761;28;20186;-85
2022/02/11 08:46:45;;;;;;;6.47;3.70;;;2.70;99.90;;;;;;5102317;28;20198;-84
2022/02/11 08:49:13;;;;;;;5.03;3.55;;;2.50;99.90;;;;;;5109245;28;20216;-85
2022/02/11 08:51:40;;;;;;;4.78;4.15;;;2.40;99.90;;;;;;5091674;28;20209;-85
2022/02/11 08:54:08;;;;;;;4.25;3.85;;;2.20;99.90;;;;;;5103160;28;20198;-85
2022/02/11 08:56:39;;;;;;;5.85;3.70;;;2.00;99.90;;;;;;5105958;28;20201;-85
2022/02/11 08:59:07;;;;;;;3.22;3.03;;;2.40;99.90;;;;;;5105923;28;20265;-84
2022/02/11 09:01:34;;;;;;;6.38;3.33;;;2.40;99.90;;;;;;5088470;28;20200;-84
2022/02/11 09:04:01;;;;;;;3.38;3.08;;;2.60;99.90;;;;;;5094377;28;20250;-85
2022/02/11 09:06:28;;;;;;;7.50;4.25;;;2.60;99.90;;;;;;5090721;28;20279;-85
2022/02/11 09:08:55;;;;;;;4.43;3.25;;;2.80;99.90;;;;;;5108535;28;20205;-84
2022/02/11 09:11:23;;;;;;;5.05;3.22;;;2.90;99.90;;;;;;5107075;28;20664;-84
2022/02/11 09:13:51;;;;;;;5.10;3.25;;;3.00;99.90;;;;;;5102838;28;20187;-84
2022/02/11 09:16:19;;;;;;;3.53;3.22;;;2.90;99.90;;;;;;5101324;28;20198;-86
2022/02/11 09:18:46;;;;;;;3.92;3.40;;;2.90;99.90;;;;;;5091653;28;20301;-85
2022/02/11 09:21:13;;;;;;;4.43;3.08;;;2.90;99.90;;;;;;5091251;28;20275;-84
2022/02/11 09:23:40;;;;;;;3.97;3.58;;;2.90;99.90;;;;;;5102987;28;20309;-85
2022/02/11 09:26:07;;;;;;;4.85;3.40;;;3.00;99.60;;;;;;5096485;28;20211;-84
2022/02/11 09:28:36;;;;;;;4.18;3.75;;;3.00;99.00;;;;;;5099035;28;20190;-84
2022/02/11 09:31:04;;;;;;;11.05;2.65;;;3.10;99.30;;;;;;5084678;28;20199;-84
2022/02/11 09:33:31;;;;;;;3.30;3.00;;;3.20;98.60;;;;;;5092511;28;20205;-85
2022/02/11 09:35:58;;;;;;;5.97;3.13;;;3.20;98.30;;;;;;5090475;28;20208;-84
2022/02/11 09:38:25;;;;;;;4.25;3.60;;;3.40;97.80;;;;;;5100290;28;20213;-84
2022/02/11 09:40:53;;;;;;;3.25;2.75;;;3.50;99.90;;;;;;5100265;28;20682;-84
2022/02/11 09:43:24;;;;;;;5.15;3.33;;;3.50;97.80;;;;;;5098264;28;20198;-84
2022/02/11 09:45:53;;;;;;;3.63;3.10;;;3.60;97.50;;;;;;5101202;28;20198;-83
2022/02/11 09:48:23;;;;;;;3.15;2.85;;;3.60;96.90;;;;;;5103078;28;20217;-84
2022/02/11 09:50:53;;;;;;;3.35;3.05;;;3.70;96.10;;;;;;5108974;28;20263;-84
2022/02/11 09:53:20;;;;;;;3.60;3.25;;;3.80;96.60;;;;;;5101300;28;20605;-84
2022/02/11 09:55:47;;;;;;;7.35;3.90;;;3.40;99.90;;;;;;5109375;28;20652;-84
2022/02/11 09:58:18;;;;;;;2.78;2.25;;;3.80;96.60;;;;;;5105177;28;20213;-84
2022/02/11 10:00:48;;;;;;;6.70;2.85;;;3.90;95.00;;;;;;5092491;28;20213;-85
2022/02/11 10:03:21;;;;;;;3.55;2.90;;;3.80;98.00;;;;;;5090529;28;20199;-85
2022/02/11 10:05:49;;;;;;;5.32;2.08;;;5.10;95.50;;;;;;5092164;28;20255;-85
2022/02/11 10:08:17;;;;;;;3.67;2.50;;;3.80;95.20;;;;;;5096800;28;20190;-84
2022/02/11 10:10:47;;;;;;;4.63;2.28;;;3.70;97.80;;;;;;5101376;28;20653;-84
2022/02/11 10:13:17;;;;;;;3.53;2.70;;;3.70;95.30;;;;;;5107929;28;20201;-84
2022/02/11 10:15:48;;;;;;;5.32;3.20;;;3.90;98.70;;;;;;5104510;28;20656;-85
2022/02/11 10:18:18;;;;;;;5.72;5.13;;;3.80;95.70;;;;;;5091973;28;20269;-84
2022/02/11 10:20:50;;;;;;;3.75;3.17;;;4.00;95.50;;;;;;5093029;28;20576;-85
2022/02/11 10:23:20;;;;;;;5.03;3.15;;;4.10;95.70;;;;;;5099162;28;20541;-84
2022/02/11 10:26:13;;;;;;;3.83;3.22;;;5.40;96.60;;;;;;5096729;28;20427;-84
2022/02/11 10:28:43;;;;;;;6.53;3.00;;;4.30;95.70;;;;;;5077383;28;20234;-85
2022/02/11 10:31:12;;;;;;;3.45;2.90;;;4.50;96.10;;;;;;5112081;27;20202;-84
2022/02/11 10:33:57;;;;;;;2.72;2.50;;;4.50;95.50;;;;;;5109745;27;20294;-84
2022/02/11 10:36:27;;;;;;;6.30;2.90;;;4.30;99.70;;;;;;5109514;27;20528;-85
2022/02/11 10:39:11;;;;;;;3.45;3.15;;;4.50;95.50;;;;;;5094407;28;20307;-84
2022/02/11 10:41:42;;;;;;;3.90;3.55;;;4.70;95.50;;;;;;5103153;28;20202;-84
2022/02/11 10:44:11;;;;;;;3.85;3.55;;;4.90;95.30;;;;;;5106033;28;20309;-83
2022/02/11 10:46:41;;;;;;;9.05;3.90;;;4.90;95.20;;;;;;5101624;28;20198;-85
2022/02/11 10:49:09;;;;;;;6.22;2.95;;;4.90;99.90;;;;;;5090680;28;20206;-85
2022/02/11 10:51:42;;;;;;;3.95;2.75;;;5.00;95.30;;;;;;5094239;28;20203;-83
2022/02/11 10:54:27;;;;;;;4.18;2.80;;;4.70;99.90;;;;;;5100193;28;20593;-85
2022/02/11 10:56:56;;;;;;;3.13;2.92;;;4.70;94.10;;;;;;5109032;28;20279;-84
2022/02/11 10:59:30;;;;;;;3.55;3.20;;;4.80;96.50;;;;;;5090207;28;20313;-84
2022/02/11 11:01:58;;;;;;;2.90;2.40;;;4.70;94.00;;;;;;5106369;28;20242;-84
2022/02/11 11:04:26;;;;;;;4.35;2.40;;;5.40;96.50;;;;;;5099511;28;20202;-85
2022/02/11 11:06:58;;;;;;;9.82;3.03;;;4.80;93.70;;;;;;5077593;28;20197;-85
2022/02/11 11:09:28;;;;;;;4.82;3.58;;;4.70;93.60;;;;;;5103473;28;20233;-84
2022/02/11 11:11:57;;;;;;;3.30;2.30;;;5.40;95.70;;;;;;5102283;28;20206;-84
2022/02/11 11:14:25;;;;;;;3.00;2.70;;;5.00;95.10;;;;;;5112630;28;20747;-84
2022/02/11 11:16:55;;;;;;;8.55;2.95;;;4.80;95.70;;;;;;5092468;28;20198;-84
2022/02/11 11:19:24;;;;;;;3.47;3.17;;;5.10;93.80;;;;;;5113590;28;20762;-84
2022/02/11 11:24:39;;;;;;;2.13;2.03;;;5.10;98.80;;;;;;5087961;28;20199;-86
2022/02/11 11:27:06;;;;;;;2.10;1.85;;;5.20;92.60;;;;;;5089362;28;20270;-85
2022/02/11 11:29:33;;;;;;;2.65;2.33;;;5.10;93.00;;;;;;5099104;28;20234;-84
2022/02/11 11:32:02;;;;;;;10.27;2.83;;;5.10;93.50;;;;;;5090757;28;20198;-84
2022/02/11 11:34:33;;;;;;;2.63;2.35;;;5.20;98.40;;;;;;5086987;28;20530;-85
2022/02/11 11:37:09;;;;;;;5.40;2.95;;;5.10;98.30;;;;;;5099944;28;20713;-85
2022/02/11 11:39:40;;;;;;;3.70;2.50;;;5.50;98.80;;;;;;5108081;28;20729;-84
2022/02/11 11:42:10;;;;;;;3.50;2.55;;;5.30;92.90;;;;;;5101030;28;20284;-85
2022/02/11 11:44:48;;;;;;;3.63;2.50;;;5.40;93.50;;;;;;5101553;28;20225;-86
2022/02/11 11:47:27;;;;;;;3.55;3.25;;;5.60;94.00;;;;;;5110137;28;20696;-84
2022/02/11 11:49:55;;;;;;;3.08;2.80;;;5.50;92.70;;;;;;5094350;28;20217;-84
2022/02/11 11:52:24;;;;;;;12.27;2.50;;;5.50;93.20;;;;;;5101544;28;20202;-84
2022/02/11 11:55:18;;;;;;;4.25;2.45;;;5.00;93.40;;;;;;5087824;28;20286;-84
2022/02/11 11:57:45;;;;;;;4.40;3.28;;;5.40;97.10;;;;;;5078391;28;20194;-85
2022/02/11 12:00:14;;;;;;;2.70;2.50;;;5.40;92.30;;;;;;5099221;28;20225;-84
2022/02/11 12:02:50;;;;;;;8.55;3.78;;;5.20;96.70;;;;;;5086874;28;20195;-85
2022/02/11 12:05:45;;;;;;;2.45;2.28;;;5.40;92.60;;;;;;5097981;28;20194;-84
2022/02/11 12:08:12;;;;;;;3.25;2.83;;;6.00;97.00;;;;;;5103317;28;20657;-84
2022/02/11 12:10:40;;;;;;;2.90;2.35;;;5.30;92.50;;;;;;5090301;28;20199;-84
2022/02/11 12:13:09;;;;;;;3.00;2.28;;;6.10;97.10;;;;;;5092784;28;20193;-84
2022/02/11 12:15:36;;;;;;;2.55;2.00;;;5.40;91.90;;;;;;5103627;28;20279;-84
2022/02/11 12:18:03;;;;;;;3.35;2.25;;;5.50;92.00;;;;;;5096361;28;20251;-84
2022/02/11 12:20:30;;;;;;;3.78;2.10;;;5.60;91.70;;;;;;5089631;28;20256;-84
2022/02/11 12:28:35;;;;;;;1.95;1.80;;;5.80;89.60;;;;;;5069224;28;20202;-84
2022/02/11 12:31:06;;;;;;;1.83;1.73;;;5.70;90.20;;;;;;5091811;28;20301;-84
2022/02/11 12:33:33;;;;;;;4.90;2.50;;;5.90;87.70;;;;;;5109456;27;20224;-84
2022/02/11 12:36:11;;;;;;;6.45;2.17;;;6.00;86.20;;;;;;5096599;28;20754;-84
2022/02/11 12:38:39;;;;;;;3.28;1.50;;;6.00;85.50;;;;;;5088682;28;20311;-84
2022/02/11 12:41:07;;;;;;;2.08;1.60;;;5.80;81.30;;;;;;5088694;28;20222;-84
2022/02/11 12:43:34;;;;;;;3.15;2.08;;;5.80;86.80;;;;;;5087568;28;20198;-85
2022/02/11 12:46:04;;;;;;;3.80;1.83;;;5.70;85.50;;;;;;5089153;28;20207;-84
2022/02/11 12:48:33;;;;;;;2.38;1.73;;;5.70;84.40;;;;;;5094079;28;20646;-84
2022/02/11 12:51:00;;;;;;;1.90;1.80;;;5.60;83.90;;;;;;5097851;27;20210;-84
2022/02/11 12:53:28;;;;;;;2.60;2.03;;;5.40;83.20;;;;;;5092613;28;20560;-84
2022/02/11 12:55:56;;;;;;;5.65;1.80;;;5.30;83.90;;;;;;5092512;28;20495;-84
2022/02/11 12:58:24;;;;;;;3.45;2.53;;;5.00;92.40;;;;;;5088709;28;20584;-84
2022/02/11 13:00:51;;;;;;;4.95;2.22;;;5.30;85.50;;;;;;5105984;28;20190;-84
2022/02/11 13:03:20;;;;;;;2.55;2.08;;;5.30;92.90;;;;;;5096475;28;20606;-84
2022/02/11 13:05:51;;;;;;;1.90;1.80;;;5.30;85.40;;;;;;5100167;28;20601;-85
2022/02/11 13:08:23;;;;;;;3.20;1.60;;;5.30;86.10;;;;;;5089483;28;20732;-85
2022/02/11 13:10:56;;;;;;;6.72;2.63;;;5.30;85.00;;;;;;5091184;28;20195;-84
2022/02/11 13:13:26;;;;;;;4.03;2.33;;;5.20;93.50;;;;;;5089660;28;20210;-84
2022/02/11 13:15:55;;;;;;;1.88;1.73;;;8.10;91.40;;;;;;5092318;28;20552;-85
2022/02/11 13:18:24;;;;;;;5.18;2.45;;;5.20;86.50;;;;;;5085581;28;20194;-85
2022/02/11 13:20:54;;;;;;;2.53;2.10;;;5.10;86.50;;;;;;5108993;28;20202;-85
2022/02/11 13:23:22;;;;;;;2.00;1.88;;;5.00;94.00;;;;;;5107691;28;20202;-85
2022/02/11 13:25:50;;;;;;;5.05;1.90;;;5.00;87.40;;;;;;5089166;28;20694;-85
2022/02/11 13:28:19;;;;;;;4.43;2.80;;;5.10;87.00;;;;;;5107117;28;20657;-85
2022/02/11 13:30:55;;;;;;;4.53;3.00;;;4.90;87.30;;;;;;5108981;28;20217;-84
2022/02/11 13:33:26;;;;;;;2.63;1.98;;;4.40;91.60;;;;;;5086504;28;20675;-85
2022/02/11 13:35:56;;;;;;;2.40;2.20;;;5.00;87.60;;;;;;5087342;28;20264;-84
2022/02/11 13:38:24;;;;;;;3.20;2.20;;;5.10;88.00;;;;;;5106395;28;20255;-84
2022/02/11 13:40:53;;;;;;;5.60;2.35;;;5.10;88.20;;;;;;5097466;28;20202;-84
2022/02/11 13:43:20;;;;;;;3.13;1.85;;;5.20;89.00;;;;;;5093968;28;20194;-85
2022/02/11 13:45:57;;;;;;;3.22;2.47;;;5.20;86.60;;;;;;5087737;28;20241;-84
2022/02/11 13:48:27;;;;;;;5.45;2.50;;;5.20;87.40;;;;;;5086572;28;20598;-84
2022/02/11 13:51:00;;;;;;;2.90;2.28;;;5.30;87.90;;;;;;5088162;28;20274;-85
2022/02/11 13:53:32;;;;;;;4.70;2.20;;;5.30;86.30;;;;;;5088367;28;20207;-84
2022/02/11 13:56:00;;;;;;;5.15;3.00;;;5.40;85.70;;;;;;5087622;28;20206;-84
2022/02/11 13:58:33;;;;;;;2.20;2.03;;;5.60;93.40;;;;;;5104061;28;20205;-84
2022/02/11 14:01:29;;;;;;;2.75;2.55;;;5.80;88.30;;;;;;5042699;28;20219;-84
2022/02/11 14:04:00;;;;;;;7.32;2.75;;;5.80;85.30;;;;;;5086948;28;20198;-84
2022/02/11 14:06:28;;;;;;;3.35;2.35;;;5.60;85.60;;;;;;5107818;28;20225;-85
2022/02/11 14:08:56;;;;;;;2.75;2.35;;;5.30;87.80;;;;;;5105836;28;20201;-85
2022/02/11 14:11:23;;;;;;;3.50;2.35;;;5.50;84.80;;;;;;5081930;28;20315;-84
2022/02/11 14:13:50;;;;;;;3.03;2.38;;;5.50;85.30;;;;;;5088396;28;20206;-84
2022/02/11 14:16:18;;;;;;;2.88;2.35;;;5.50;85.30;;;;;;5106245;28;20190;-85
2022/02/11 14:18:49;;;;;;;2.35;2.00;;;5.50;86.20;;;;;;5108336;28;20580;-84
2022/02/11 14:21:18;;;;;;;3.40;2.10;;;5.40;85.40;;;;;;5102241;28;20238;-84
2022/02/11 14:23:45;;;;;;;4.78;2.53;;;5.30;92.80;;;;;;5105476;28;20202;-84
2022/02/11 14:26:12;;;;;;;2.63;2.35;;;5.30;92.10;;;;;;5107420;28;20194;-84
2022/02/11 14:28:39;;;;;;;3.83;2.58;;;5.40;85.40;;;;;;5095104;28;20244;-84
2022/02/11 14:31:07;;;;;;;2.35;1.95;;;5.50;85.00;;;;;;5097045;28;20198;-85
2022/02/11 14:33:37;;;;;;;2.15;1.95;;;5.20;92.00;;;;;;5095232;28;20688;-85
2022/02/11 14:36:06;;;;;;;2.30;1.90;;;5.20;83.50;;;;;;5086775;28;20195;-84
2022/02/11 14:38:33;;;;;;;3.65;2.50;;;5.10;84.30;;;;;;5091460;28;20204;-85
2022/02/11 14:43:49;;;;;;;2.90;1.80;;;5.20;84.60;;;;;;5064917;28;20215;-85
2022/02/11 14:46:16;;;;;;;2.45;2.25;;;5.20;82.50;;;;;;5093310;28;20272;-85
2022/02/11 14:48:43;;;;;;;2.80;2.35;;;5.30;92.20;;;;;;5090600;28;20252;-84
2022/02/11 14:51:11;;;;;;;2.17;1.98;;;5.30;84.80;;;;;;5108183;28;20625;-85
2022/02/11 14:53:38;;;;;;;3.05;2.75;;;5.30;85.50;;;;;;5111719;28;20678;-85
2022/02/11 14:56:07;;;;;;;3.42;2.53;;;5.40;86.40;;;;;;5093508;27;20275;-85
2022/02/11 14:58:34;;;;;;;5.00;2.55;;;5.50;86.50;;;;;;5090238;28;20210;-85
2022/02/11 15:01:01;;;;;;;4.15;2.78;;;5.60;86.20;;;;;;5094109;28;20275;-85
2022/02/11 15:03:28;;;;;;;3.28;2.95;;;5.50;83.70;;;;;;5091111;28;20199;-85
2022/02/11 15:05:55;;;;;;;2.90;2.70;;;5.20;89.30;;;;;;5108362;28;20240;-84
2022/02/11 15:08:25;;;;;;;3.47;2.75;;;5.70;93.10;;;;;;5101600;28;20202;-85
2022/02/11 15:10:52;;;;;;;2.75;2.55;;;5.50;84.00;;;;;;5080595;28;20203;-84
2022/02/11 15:13:19;;;;;;;2.80;2.05;;;5.10;90.50;;;;;;5070229;28;20623;-85
2022/02/11 15:15:46;;;;;;;2.88;2.65;;;5.60;81.50;;;;;;5086404;28;20210;-85
2022/02/11 15:18:13;;;;;;;6.13;2.83;;;5.40;80.20;;;;;;5090072;28;20186;-85
2022/02/11 15:20:43;;;;;;;3.67;2.13;;;5.40;80.70;;;;;;5079051;28;20227;-85
2022/02/11 15:23:11;;;;;;;2.85;2.53;;;5.20;81.00;;;;;;5070140;28;20199;-84
2022/02/11 15:25:42;;;;;;;2.45;2.20;;;5.20;82.10;;;;;;5079653;28;20484;-85
2022/02/11 15:28:09;;;;;;;4.15;2.13;;;5.90;92.30;;;;;;5090057;28;20261;-85
2022/02/11 15:30:36;;;;;;;3.40;2.47;;;4.70;91.70;;;;;;5089789;28;20251;-85
2022/02/11 15:33:04;;;;;;;2.35;1.60;;;4.80;83.10;;;;;;5089909;28;20237;-85
2022/02/11 15:35:33;;;;;;;2.83;1.75;;;4.80;83.40;;;;;;5082044;28;20205;-84
2022/02/11 15:38:01;;;;;;;2.03;1.77;;;4.70;83.20;;;;;;5070816;28;20188;-85
2022/02/11 15:40:29;;;;;;;2.40;2.20;;;5.20;85.00;;;;;;5076576;28;20309;-84
2022/02/11 15:42:58;;;;;;;9.23;2.85;;;4.70;91.80;;;;;;5090142;28;20260;-85
2022/02/11 15:45:28;;;;;;;3.45;2.65;;;4.50;85.60;;;;;;5089826;28;20282;-85
2022/02/11 15:47:54;;;;;;;2.60;2.40;;;4.60;83.00;;;;;;5080201;28;20207;-84
2022/02/11 15:50:21;;;;;;;3.42;2.55;;;4.60;83.50;;;;;;5090407;28;20222;-84
2022/02/11 15:52:52;;;;;;;2.65;2.20;;;4.40;92.40;;;;;;5077609;28;20628;-84
2022/02/11 15:55:19;;;;;;;2.55;1.90;;;4.40;92.20;;;;;;5089006;28;20210;-85
2022/02/11 15:57:45;;;;;;;6.32;2.00;;;4.40;87.00;;;;;;5079741;28;20222;-84
2022/02/11 16:00:15;;;;;;;2.85;2.45;;;4.50;84.50;;;;;;5083834;28;20300;-84
2022/02/11 16:02:42;;;;;;;3.25;2.65;;;4.50;84.90;;;;;;5067580;28;20469;-85
2022/02/11 16:05:11;;;;;;;3.05;2.40;;;4.50;85.50;;;;;;5085264;28;20226;-84
2022/02/11 16:07:38;;;;;;;3.95;3.50;;;4.50;85.10;;;;;;5086534;28;20252;-85
2022/02/11 16:10:09;;;;;;;5.45;4.88;;;4.40;85.00;;;;;;5074208;28;20238;-85
2022/02/11 16:12:36;;;;;;;4.10;2.50;;;4.40;85.50;;;;;;5090054;28;20252;-83
2022/02/11 16:15:03;;;;;;;7.18;3.05;;;4.40;85.10;;;;;;5084225;28;20576;-85
2022/02/11 16:17:32;;;;;;;13.55;10.43;;;4.30;92.80;;;;;;5069363;28;20283;-84
2022/02/11 16:20:05;;;;;;;4.25;3.30;;;4.40;85.70;;;;;;5069609;28;20214;-85
2022/02/11 16:22:32;;;;;;;5.10;2.90;;;4.20;93.20;;;;;;5077430;28;20221;-85
2022/02/11 16:25:00;;;;;;;13.82;9.60;;;4.50;93.00;;;;;;5089311;28;20608;-85
2022/02/11 16:27:27;;;;;;;3.42;2.60;;;4.30;86.60;;;;;;5105433;28;20559;-85